Time;durP1;ratioP1;P1;durP2;ratioP2;P2;SDS_P1;SDS_P2;PMS_P1;PMS_P2;Temp;Humidity;BMP_temperature;BMP_pressure;BME280_temperature;BME280_humidity;BME280_pressure;Samples;Min_cycle;Max_cycle;Signal;HPM_P1;HPM_P2
2023/01/12 00:01:58;;;;;;;3.40;1.00;;;6.80;99.90;;;;;;4974190;28;20958;-84
2023/01/12 00:04:23;;;;;;;5.27;0.93;;;7.00;99.90;;;;;;4974550;28;20201;-84
2023/01/12 00:06:49;;;;;;;3.73;1.50;;;6.90;99.90;;;;;;4974657;28;20436;-83
2023/01/12 00:09:15;;;;;;;2.67;0.93;;;7.00;99.90;;;;;;4974485;28;20200;-86
2023/01/12 00:11:40;;;;;;;5.60;1.13;;;7.00;99.90;;;;;;4975015;28;20321;-84
2023/01/12 00:14:07;;;;;;;4.20;1.07;;;7.00;99.90;;;;;;4974643;28;20208;-83
2023/01/12 00:16:33;;;;;;;3.20;1.30;;;6.90;99.90;;;;;;4992121;28;20221;-85
2023/01/12 00:19:08;;;;;;;4.20;1.40;;;6.90;99.90;;;;;;4974675;28;20432;-85
2023/01/12 00:22:16;;;;;;;3.67;0.90;;;6.90;99.90;;;;;;4974130;28;20507;-83
2023/01/12 00:24:43;;;;;;;1.90;1.57;;;6.90;99.90;;;;;;4969274;28;20429;-84
2023/01/12 00:27:13;;;;;;;1.90;0.90;;;6.80;99.90;;;;;;4973829;28;20527;-84
2023/01/12 00:29:39;;;;;;;3.33;1.03;;;6.80;99.90;;;;;;4989846;28;20992;-82
2023/01/12 00:32:05;;;;;;;5.20;1.40;;;6.80;99.90;;;;;;4973180;28;20503;-82
2023/01/12 00:34:31;;;;;;;10.43;1.67;;;6.80;99.90;;;;;;4973183;28;20432;-83
2023/01/12 00:37:00;;;;;;;4.30;1.27;;;6.70;99.90;;;;;;4973427;28;20484;-83
2023/01/12 00:39:25;;;;;;;7.60;1.50;;;6.70;99.90;;;;;;4989831;28;20421;-83
2023/01/12 00:47:21;;;;;;;4.43;1.00;;;6.70;99.90;;;;;;4990875;28;20432;-83
2023/01/12 00:49:46;;;;;;;2.50;0.87;;;6.70;99.90;;;;;;4975503;28;20862;-84
2023/01/12 00:52:15;;;;;;;6.43;1.63;;;6.60;99.90;;;;;;4957274;28;20244;-82
2023/01/12 00:54:41;;;;;;;4.43;1.10;;;6.60;99.90;;;;;;4973521;28;20185;-83
2023/01/12 00:57:08;;;;;;;2.53;0.80;;;6.70;99.90;;;;;;4973582;28;20830;-83
2023/01/12 00:59:34;;;;;;;3.47;1.00;;;6.70;99.90;;;;;;4973690;28;20527;-84
2023/01/12 01:02:00;;;;;;;3.27;1.10;;;6.70;99.90;;;;;;4973545;28;20445;-84
2023/01/12 01:04:26;;;;;;;3.80;0.90;;;6.70;99.90;;;;;;4991255;28;20557;-84
2023/01/12 01:06:51;;;;;;;2.77;0.83;;;6.70;99.90;;;;;;4973544;28;20244;-83
2023/01/12 01:09:17;;;;;;;3.87;1.67;;;6.80;99.90;;;;;;4973183;28;20197;-83
2023/01/12 01:11:43;;;;;;;4.50;1.70;;;6.80;99.90;;;;;;4973517;28;20772;-85
2023/01/12 01:14:08;;;;;;;5.23;1.03;;;6.80;99.90;;;;;;4988929;28;20190;-83
2023/01/12 01:16:34;;;;;;;9.37;1.40;;;6.90;99.90;;;;;;4972742;28;20229;-83
2023/01/12 01:19:01;;;;;;;4.47;0.90;;;6.90;99.90;;;;;;4989243;28;20189;-83
2023/01/12 01:21:27;;;;;;;5.03;1.03;;;6.90;99.90;;;;;;4972853;28;20248;-83
2023/01/12 01:23:53;;;;;;;3.93;0.93;;;6.90;99.90;;;;;;4975867;28;20464;-84
2023/01/12 01:26:21;;;;;;;9.50;1.27;;;6.90;99.90;;;;;;4992310;28;20956;-82
2023/01/12 01:28:48;;;;;;;6.10;1.60;;;7.20;99.90;;;;;;4993562;28;20178;-84
2023/01/12 01:31:16;;;;;;;7.47;1.37;;;7.00;99.90;;;;;;4992299;28;20949;-83
2023/01/12 01:33:42;;;;;;;2.50;1.20;;;7.10;99.90;;;;;;4993353;28;20448;-83
2023/01/12 01:36:09;;;;;;;4.87;1.50;;;7.00;99.90;;;;;;4976116;28;20428;-83
2023/01/12 01:38:35;;;;;;;2.93;1.00;;;7.10;99.90;;;;;;4990992;28;20422;-82
2023/01/12 01:41:01;;;;;;;3.00;1.30;;;7.10;99.90;;;;;;4975769;28;20432;-83
2023/01/12 01:43:28;;;;;;;5.70;1.27;;;7.20;99.90;;;;;;4976083;28;20417;-84
2023/01/12 01:46:07;;;;;;;6.53;0.83;;;7.10;99.90;;;;;;4976522;28;20433;-83
2023/01/12 01:48:37;;;;;;;2.43;1.00;;;7.10;99.90;;;;;;4975447;28;20425;-83
2023/01/12 01:51:12;;;;;;;7.83;1.67;;;7.20;99.90;;;;;;4976274;28;20993;-84
2023/01/12 01:53:40;;;;;;;2.23;0.97;;;7.20;99.90;;;;;;4975036;28;20425;-83
2023/01/12 01:56:11;;;;;;;6.23;1.00;;;7.20;99.90;;;;;;4989778;28;20451;-83
2023/01/12 01:58:45;;;;;;;4.60;1.50;;;7.40;99.90;;;;;;4973793;28;20483;-82
2023/01/12 02:01:11;;;;;;;5.30;1.20;;;7.20;99.90;;;;;;4991307;28;20506;-83
2023/01/12 02:03:38;;;;;;;4.00;1.13;;;7.30;99.90;;;;;;4973457;28;20947;-82
2023/01/12 02:06:06;;;;;;;4.33;0.90;;;7.30;99.90;;;;;;4973041;28;20288;-82
2023/01/12 02:08:49;;;;;;;2.60;0.93;;;7.30;99.90;;;;;;4989665;28;20421;-83
2023/01/12 02:17:09;;;;;;;6.67;1.27;;;7.20;99.90;;;;;;4988398;28;21005;-82
2023/01/12 02:20:12;;;;;;;4.73;1.10;;;7.20;99.90;;;;;;4989568;28;20511;-82
2023/01/12 02:23:12;;;;;;;4.83;1.27;;;7.20;99.90;;;;;;4971417;28;20436;-82
2023/01/12 02:26:15;;;;;;;7.77;1.20;;;7.20;99.90;;;;;;4971628;28;20423;-82
2023/01/12 02:28:43;;;;;;;2.33;0.80;;;7.10;99.90;;;;;;4971304;28;20937;-82
2023/01/12 02:31:24;;;;;;;3.37;1.00;;;7.10;99.90;;;;;;4987524;28;20445;-82
2023/01/12 02:34:14;;;;;;;2.23;0.93;;;7.10;99.90;;;;;;4987560;28;20962;-82
2023/01/12 02:36:49;;;;;;;5.27;1.20;;;7.10;99.90;;;;;;4971452;28;20468;-82
2023/01/12 02:39:26;;;;;;;6.50;1.20;;;7.00;99.90;;;;;;4987853;28;21007;-82
2023/01/12 02:45:16;;;;;;;2.80;1.03;;;7.00;99.90;;;;;;4989464;28;20815;-83
2023/01/12 02:48:07;;;;;;;3.70;1.10;;;7.00;99.90;;;;;;4987925;28;20512;-83
2023/01/12 02:50:43;;;;;;;3.23;1.07;;;7.00;99.90;;;;;;4991776;28;20428;-83
2023/01/12 02:53:23;;;;;;;7.33;1.17;;;7.10;99.90;;;;;;4993742;28;20444;-84
2023/01/12 02:55:49;;;;;;;5.40;1.03;;;7.20;99.90;;;;;;4993641;28;20432;-85
2023/01/12 02:58:19;;;;;;;3.70;0.90;;;7.10;99.90;;;;;;4977405;28;20477;-84
2023/01/12 03:00:48;;;;;;;5.07;1.20;;;7.10;99.90;;;;;;4976701;28;20471;-83
2023/01/12 03:03:15;;;;;;;5.90;1.10;;;7.20;99.90;;;;;;4976675;28;20870;-81
2023/01/12 03:05:42;;;;;;;1.43;0.87;;;7.10;99.90;;;;;;4976656;28;20483;-82
2023/01/12 03:08:12;;;;;;;6.63;3.30;;;7.10;99.90;;;;;;4992434;28;20948;-82
2023/01/12 03:10:57;;;;;;;7.67;1.07;;;7.10;99.90;;;;;;4992235;28;20435;-81
2023/01/12 03:13:25;;;;;;;3.80;1.23;;;7.00;99.90;;;;;;4992226;28;20496;-82
2023/01/12 03:15:54;;;;;;;3.27;1.30;;;6.90;99.90;;;;;;4975912;28;20528;-82
2023/01/12 03:18:28;;;;;;;8.30;1.37;;;6.90;99.90;;;;;;4975373;28;20479;-82
2023/01/12 03:21:00;;;;;;;4.47;0.90;;;6.80;99.90;;;;;;4992458;28;20416;-83
2023/01/12 03:23:30;;;;;;;10.23;2.40;;;6.80;99.90;;;;;;4975479;28;20409;-78
2023/01/12 03:25:57;;;;;;;8.53;1.90;;;6.80;99.90;;;;;;4993816;28;20997;-83
2023/01/12 03:28:27;;;;;;;7.63;1.47;;;6.80;99.90;;;;;;4976648;28;20429;-82
2023/01/12 03:31:01;;;;;;;2.83;0.80;;;6.70;99.90;;;;;;4975256;28;20491;-83
2023/01/12 03:33:26;;;;;;;6.13;1.43;;;6.70;99.90;;;;;;4975055;28;20445;-83
2023/01/12 03:36:18;;;;;;;4.80;0.90;;;6.80;99.90;;;;;;4991159;28;20431;-81
2023/01/12 03:38:49;;;;;;;10.30;1.63;;;6.60;99.90;;;;;;4974515;28;20984;-82
2023/01/12 03:41:26;;;;;;;6.33;1.50;;;6.60;99.90;;;;;;4990675;28;21338;-82
2023/01/12 03:43:56;;;;;;;6.10;1.67;;;6.50;99.90;;;;;;4990749;28;20416;-81
2023/01/12 03:46:28;;;;;;;4.93;1.20;;;6.40;99.90;;;;;;4992692;28;20417;-81
2023/01/12 03:49:03;;;;;;;3.30;1.30;;;6.30;99.90;;;;;;4991124;28;20425;-81
2023/01/12 03:51:33;;;;;;;5.33;1.43;;;6.40;99.90;;;;;;4974777;28;20824;-81
2023/01/12 03:54:01;;;;;;;7.80;1.60;;;6.30;99.90;;;;;;4974634;28;20429;-81
2023/01/12 03:56:32;;;;;;;4.40;1.07;;;6.30;99.90;;;;;;4975010;28;20527;-83
2023/01/12 03:58:58;;;;;;;8.60;1.67;;;6.30;99.90;;;;;;4975105;28;20409;-82
2023/01/12 04:01:24;;;;;;;8.00;1.50;;;6.30;99.90;;;;;;4974720;28;20460;-83
2023/01/12 04:03:49;;;;;;;6.20;0.70;;;6.40;99.90;;;;;;4974809;28;20425;-82
2023/01/12 04:06:15;;;;;;;10.33;1.60;;;6.30;99.90;;;;;;4975103;28;20446;-82
2023/01/12 04:08:41;;;;;;;2.37;0.93;;;6.40;99.90;;;;;;4991259;28;20421;-82
2023/01/12 04:13:52;;;;;;;8.97;1.87;;;6.40;99.90;;;;;;4992835;28;20199;-82
2023/01/12 04:16:18;;;;;;;4.33;1.03;;;6.50;99.90;;;;;;4974594;28;20425;-83
2023/01/12 04:18:43;;;;;;;16.80;4.33;;;6.50;99.90;;;;;;4992311;28;20432;-82
2023/01/12 04:22:41;;;;;;;7.67;1.30;;;6.40;99.90;;;;;;4990577;28;20441;-82
2023/01/12 04:23:55;;;;;;;3.70;1.07;;;6.50;99.90;;;;;;4991741;28;20860;-83
2023/01/12 04:26:20;;;;;;;10.73;1.23;;;6.50;99.90;;;;;;4958196;28;20443;-82
2023/01/12 04:28:46;;;;;;;4.37;1.40;;;6.60;99.90;;;;;;4958011;28;20185;-81
2023/01/12 04:31:12;;;;;;;12.47;1.00;;;6.60;99.90;;;;;;4973800;28;20198;-82
2023/01/12 04:33:37;;;;;;;6.43;1.17;;;6.70;99.90;;;;;;4957550;28;20671;-82
2023/01/12 04:36:03;;;;;;;6.13;1.13;;;6.70;99.90;;;;;;4973973;28;20190;-81
2023/01/12 04:38:29;;;;;;;14.17;1.37;;;6.70;99.90;;;;;;4958089;28;20226;-81
2023/01/12 04:40:54;;;;;;;3.87;2.07;;;6.80;99.90;;;;;;4973827;28;20182;-81
2023/01/12 04:43:20;;;;;;;7.07;1.70;;;6.70;99.90;;;;;;4974510;28;20602;-81
2023/01/12 04:45:46;;;;;;;2.43;1.30;;;6.80;99.90;;;;;;4973596;28;20504;-81
2023/01/12 04:48:14;;;;;;;5.13;1.00;;;6.80;99.90;;;;;;4957968;28;20288;-81
2023/01/12 04:50:40;;;;;;;6.33;1.67;;;6.80;99.90;;;;;;4973790;28;20432;-81
2023/01/12 04:53:08;;;;;;;5.70;1.67;;;6.80;99.90;;;;;;4989995;28;20535;-82
2023/01/12 04:55:38;;;;;;;6.93;1.90;;;6.90;99.90;;;;;;4973789;28;20429;-82
2023/01/12 04:58:05;;;;;;;11.40;1.63;;;6.80;99.90;;;;;;4990812;28;21038;-82
2023/01/12 05:00:30;;;;;;;3.17;1.40;;;7.00;99.90;;;;;;4991065;28;20911;-82
2023/01/12 05:03:02;;;;;;;6.57;1.10;;;7.00;99.90;;;;;;4973118;28;20452;-80
2023/01/12 05:05:31;;;;;;;9.50;1.80;;;7.10;99.90;;;;;;4973817;28;20178;-83
2023/01/12 05:10:51;;;;;;;11.63;1.70;;;7.00;99.90;;;;;;4991683;28;20480;-83
2023/01/12 05:13:17;;;;;;;11.00;1.47;;;7.10;99.90;;;;;;4973517;28;20417;-83
2023/01/12 05:15:42;;;;;;;9.67;1.90;;;7.20;99.90;;;;;;4957320;28;20470;-82
2023/01/12 05:18:08;;;;;;;4.70;1.20;;;7.30;99.90;;;;;;4989429;28;20300;-83
2023/01/12 05:20:33;;;;;;;6.33;1.60;;;7.20;99.90;;;;;;4991110;28;20206;-82
2023/01/12 05:22:59;;;;;;;13.53;1.47;;;7.30;99.90;;;;;;4991475;28;20221;-82
2023/01/12 05:25:28;;;;;;;7.23;1.70;;;7.40;99.90;;;;;;4973094;28;20192;-83
2023/01/12 05:27:56;;;;;;;5.17;1.63;;;7.40;99.90;;;;;;4957455;28;20205;-82
2023/01/12 05:30:22;;;;;;;8.03;0.93;;;7.30;99.90;;;;;;4989392;28;20441;-83
2023/01/12 05:32:48;;;;;;;13.37;2.57;;;7.40;99.90;;;;;;4972629;28;20472;-83
2023/01/12 05:35:13;;;;;;;4.23;1.20;;;7.40;99.90;;;;;;4956459;28;20437;-83
2023/01/12 05:37:39;;;;;;;5.10;1.10;;;7.50;99.90;;;;;;4988775;28;20244;-84
2023/01/12 05:40:05;;;;;;;5.23;1.03;;;7.50;99.90;;;;;;4957020;28;20182;-82
2023/01/12 05:45:15;;;;;;;10.33;1.20;;;7.50;99.90;;;;;;4989809;28;20412;-81
2023/01/12 05:47:40;;;;;;;5.00;1.20;;;7.60;99.90;;;;;;4956166;28;20429;-81
2023/01/12 05:50:06;;;;;;;7.23;1.37;;;7.80;99.90;;;;;;4956265;28;20190;-81
2023/01/12 05:52:32;;;;;;;10.33;1.20;;;7.60;99.90;;;;;;4956047;28;20296;-81
2023/01/12 05:54:58;;;;;;;4.97;1.27;;;7.60;99.90;;;;;;4972437;28;20572;-81
2023/01/12 05:57:23;;;;;;;8.63;1.30;;;7.60;99.90;;;;;;4973174;28;20225;-85
2023/01/12 05:59:49;;;;;;;11.50;1.53;;;7.60;99.90;;;;;;4957047;28;20186;-83
2023/01/12 06:02:16;;;;;;;12.77;1.60;;;7.70;99.90;;;;;;4957252;28;20217;-83
2023/01/12 06:04:42;;;;;;;9.37;1.27;;;7.70;99.90;;;;;;4957236;28;20300;-84
2023/01/12 06:07:17;;;;;;;8.47;1.23;;;7.70;99.90;;;;;;4972871;28;20935;-83
2023/01/12 06:09:43;;;;;;;16.13;1.97;;;7.80;99.90;;;;;;4956143;28;20439;-79
2023/01/12 06:14:55;;;;;;;8.37;2.43;;;7.70;99.90;;;;;;4987754;28;20612;-79
2023/01/12 06:17:20;;;;;;;15.33;2.07;;;7.70;99.90;;;;;;4988572;28;20465;-79
2023/01/12 06:19:46;;;;;;;8.53;2.00;;;7.70;99.90;;;;;;4987346;28;20185;-79
2023/01/12 06:22:11;;;;;;;11.53;1.73;;;7.70;99.90;;;;;;4987291;28;20312;-79
2023/01/12 06:24:37;;;;;;;5.33;1.73;;;7.90;99.90;;;;;;4970732;28;20197;-79
2023/01/12 06:27:02;;;;;;;7.00;1.30;;;7.70;99.90;;;;;;4992244;28;20209;-79
2023/01/12 06:29:28;;;;;;;7.27;1.87;;;7.70;99.90;;;;;;4992775;28;20248;-79
2023/01/12 06:31:54;;;;;;;10.23;1.47;;;7.80;99.90;;;;;;4991452;28;20225;-79
2023/01/12 06:34:19;;;;;;;14.43;3.93;;;7.80;99.90;;;;;;4974893;28;20185;-79
2023/01/12 06:36:45;;;;;;;6.80;1.90;;;7.80;99.90;;;;;;4990921;28;20603;-79
2023/01/12 06:39:11;;;;;;;7.00;1.80;;;7.90;99.90;;;;;;4975325;28;20604;-79
2023/01/12 06:44:41;;;;;;;5.97;1.50;;;7.80;99.90;;;;;;4953459;29;20928;-79
2023/01/12 06:47:06;;;;;;;5.87;1.93;;;7.70;99.90;;;;;;4951510;28;20427;-79
2023/01/12 06:49:32;;;;;;;4.13;0.90;;;7.80;99.90;;;;;;4952826;28;20256;-79
2023/01/12 06:51:58;;;;;;;7.13;1.43;;;7.90;99.90;;;;;;4974612;28;20253;-80
2023/01/12 06:54:23;;;;;;;18.00;4.93;;;7.90;99.90;;;;;;4991274;28;20194;-79
2023/01/12 06:56:49;;;;;;;8.43;1.87;;;7.90;99.90;;;;;;4990821;28;20217;-79
2023/01/12 06:59:14;;;;;;;7.53;1.43;;;7.90;99.90;;;;;;4990253;28;20266;-79
2023/01/12 07:01:40;;;;;;;7.33;1.40;;;7.90;99.90;;;;;;4992057;28;20202;-79
2023/01/12 07:04:06;;;;;;;5.13;0.87;;;7.90;99.90;;;;;;4991627;28;20190;-78
2023/01/12 07:06:32;;;;;;;2.83;0.90;;;8.00;99.90;;;;;;4973641;28;20289;-78
2023/01/12 07:08:58;;;;;;;16.23;5.10;;;8.10;99.90;;;;;;4991433;28;20432;-79
2023/01/12 07:11:24;;;;;;;11.37;1.93;;;8.00;99.90;;;;;;4974097;28;20766;-79
2023/01/12 07:13:49;;;;;;;4.67;1.83;;;8.00;99.90;;;;;;4973718;28;20183;-79
2023/01/12 07:16:15;;;;;;;4.97;1.67;;;8.00;99.90;;;;;;4989569;28;20660;-79
2023/01/12 07:18:40;;;;;;;1.57;0.80;;;8.00;99.90;;;;;;4991421;28;20686;-79
2023/01/12 07:21:08;;;;;;;4.13;1.00;;;8.10;99.90;;;;;;4982732;28;20209;-80
2023/01/12 07:23:34;;;;;;;9.43;3.60;;;8.10;99.90;;;;;;5012773;28;20189;-80
2023/01/12 07:25:59;;;;;;;5.77;1.40;;;8.10;99.90;;;;;;5013947;28;20421;-80
2023/01/12 07:28:25;;;;;;;5.33;1.30;;;8.10;99.90;;;;;;4995637;28;20459;-79
2023/01/12 07:30:51;;;;;;;4.93;2.33;;;8.10;99.90;;;;;;5000376;28;20206;-80
2023/01/12 07:33:16;;;;;;;5.70;1.27;;;8.10;99.90;;;;;;4976411;28;20651;-80
2023/01/12 07:35:42;;;;;;;4.37;1.27;;;8.10;99.90;;;;;;4993816;28;20590;-81
2023/01/12 07:38:09;;;;;;;1.93;0.80;;;8.20;99.90;;;;;;4975864;28;20229;-80
2023/01/12 07:40:35;;;;;;;4.27;1.20;;;8.30;99.90;;;;;;4994369;28;20445;-80
2023/01/12 07:43:03;;;;;;;3.17;0.83;;;8.10;99.90;;;;;;4995842;28;20500;-80
2023/01/12 07:45:29;;;;;;;4.40;0.90;;;8.10;99.90;;;;;;4976240;28;20823;-80
2023/01/12 07:47:55;;;;;;;3.13;1.00;;;8.10;99.90;;;;;;4993564;28;20430;-80
2023/01/12 07:50:25;;;;;;;3.27;0.77;;;8.10;99.90;;;;;;4993467;28;20429;-80
2023/01/12 07:52:51;;;;;;;6.03;1.03;;;8.20;99.90;;;;;;4976280;28;20444;-80
2023/01/12 07:55:18;;;;;;;2.90;0.90;;;8.20;99.90;;;;;;4975744;28;20435;-80
2023/01/12 07:58:07;;;;;;;3.13;0.80;;;8.30;99.90;;;;;;4993414;28;20476;-80
2023/01/12 08:00:33;;;;;;;3.77;0.97;;;8.30;99.90;;;;;;4976053;28;20578;-80
2023/01/12 08:03:11;;;;;;;4.53;1.10;;;8.30;99.90;;;;;;4991655;28;20823;-80
2023/01/12 08:05:38;;;;;;;3.03;0.90;;;8.40;99.90;;;;;;4975626;28;20437;-80
2023/01/12 08:08:04;;;;;;;2.97;0.83;;;8.40;99.90;;;;;;4992661;28;20456;-80
2023/01/12 08:10:30;;;;;;;5.80;1.70;;;8.40;99.90;;;;;;4993220;28;20879;-80
2023/01/12 08:12:55;;;;;;;1.93;0.80;;;8.40;99.90;;;;;;4991027;28;20457;-80
2023/01/12 08:15:23;;;;;;;9.60;3.67;;;8.40;99.90;;;;;;4991471;28;20495;-80
2023/01/12 08:17:55;;;;;;;4.20;1.00;;;8.40;99.90;;;;;;4974578;28;20833;-80
2023/01/12 08:20:27;;;;;;;4.13;1.30;;;8.40;99.90;;;;;;4992060;28;20533;-80
2023/01/12 08:22:57;;;;;;;5.03;1.53;;;8.50;99.90;;;;;;4991997;28;20449;-80
2023/01/12 08:25:32;;;;;;;4.50;0.90;;;8.50;99.90;;;;;;4974327;28;20939;-80
2023/01/12 08:28:01;;;;;;;3.07;1.00;;;8.50;99.90;;;;;;4990523;28;20782;-80
2023/01/12 08:30:28;;;;;;;1.70;0.77;;;8.50;99.90;;;;;;4974240;28;20445;-79
2023/01/12 08:32:56;;;;;;;6.00;1.50;;;8.50;99.90;;;;;;4992223;28;20962;-80
2023/01/12 08:35:26;;;;;;;4.90;0.97;;;8.50;99.90;;;;;;4974089;28;20789;-80
2023/01/12 08:37:52;;;;;;;6.80;1.30;;;8.40;99.90;;;;;;4972901;28;20587;-79
2023/01/12 08:40:18;;;;;;;8.70;3.80;;;8.60;99.90;;;;;;4990085;28;20432;-79
2023/01/12 08:42:44;;;;;;;6.43;0.80;;;8.60;99.90;;;;;;4988615;28;20507;-79
2023/01/12 08:45:10;;;;;;;6.20;2.17;;;8.60;99.90;;;;;;4989351;28;20201;-79
2023/01/12 08:47:36;;;;;;;6.60;1.60;;;8.60;99.90;;;;;;4988070;28;20193;-80
2023/01/12 08:50:02;;;;;;;5.33;1.67;;;8.60;99.90;;;;;;4988502;28;20829;-79
2023/01/12 08:52:28;;;;;;;16.80;6.80;;;8.60;99.90;;;;;;4989697;28;20460;-80
2023/01/12 08:54:54;;;;;;;6.90;1.97;;;8.70;99.90;;;;;;4990971;28;21240;-80
2023/01/12 08:57:20;;;;;;;13.80;5.03;;;8.90;99.90;;;;;;4973029;28;20475;-80
2023/01/12 08:59:46;;;;;;;8.80;1.23;;;8.70;99.90;;;;;;4990380;28;20417;-80
2023/01/12 09:02:13;;;;;;;5.47;1.00;;;8.70;99.90;;;;;;4957150;28;20476;-80
2023/01/12 09:04:39;;;;;;;2.13;1.10;;;8.70;99.90;;;;;;4974012;28;20254;-80
2023/01/12 09:07:06;;;;;;;7.20;3.30;;;8.70;99.90;;;;;;4973745;28;20425;-79
2023/01/12 09:09:32;;;;;;;6.47;1.90;;;8.70;99.90;;;;;;4972730;28;20479;-79
2023/01/12 09:11:58;;;;;;;9.53;4.60;;;8.70;99.90;;;;;;4991457;28;20535;-79
2023/01/12 09:14:26;;;;;;;6.37;1.23;;;8.80;99.90;;;;;;4989364;28;20494;-79
2023/01/12 09:16:52;;;;;;;5.60;2.10;;;8.80;99.90;;;;;;4988642;28;20217;-79
2023/01/12 09:19:18;;;;;;;3.30;2.07;;;8.80;99.90;;;;;;4990194;28;20425;-79
2023/01/12 09:21:44;;;;;;;4.30;1.37;;;8.80;99.90;;;;;;4956460;28;20216;-79
2023/01/12 09:24:11;;;;;;;2.07;1.23;;;8.80;99.90;;;;;;4989091;28;20186;-79
2023/01/12 09:26:42;;;;;;;12.70;3.33;;;8.80;99.90;;;;;;4990888;28;20616;-79
2023/01/12 09:29:09;;;;;;;6.30;1.27;;;8.80;99.90;;;;;;4990371;28;20556;-79
2023/01/12 09:31:37;;;;;;;3.73;1.70;;;8.90;99.90;;;;;;4973442;28;20799;-80
2023/01/12 09:34:02;;;;;;;3.73;1.90;;;8.90;99.90;;;;;;4983161;28;20425;-80
2023/01/12 09:36:31;;;;;;;4.97;1.03;;;8.90;99.90;;;;;;4992243;28;20429;-80
2023/01/12 09:38:57;;;;;;;6.87;1.17;;;8.90;99.90;;;;;;4991361;28;20349;-80
2023/01/12 09:47:40;;;;;;;2.03;0.93;;;9.00;99.90;;;;;;4990770;28;20468;-79
2023/01/12 09:50:19;;;;;;;19.03;1.13;;;9.00;99.90;;;;;;4990679;28;20423;-79
2023/01/12 09:52:54;;;;;;;11.70;1.93;;;9.00;99.90;;;;;;4973274;28;20447;-80
2023/01/12 09:55:22;;;;;;;7.67;1.00;;;9.10;99.90;;;;;;4990759;28;20409;-80
2023/01/12 09:58:03;;;;;;;10.47;2.27;;;9.10;99.90;;;;;;4988857;28;20527;-79
2023/01/12 10:00:29;;;;;;;5.47;1.50;;;9.00;99.90;;;;;;4988985;28;20420;-80
2023/01/12 10:03:24;;;;;;;4.57;0.90;;;9.00;99.90;;;;;;4972941;28;20531;-80
2023/01/12 10:05:52;;;;;;;8.13;1.37;;;9.00;99.90;;;;;;4986099;28;20273;-80
2023/01/12 10:08:40;;;;;;;4.97;2.70;;;9.10;99.90;;;;;;4989559;28;20519;-80
2023/01/12 10:11:24;;;;;;;2.30;0.87;;;9.00;99.90;;;;;;4989416;28;20409;-80
2023/01/12 10:14:13;;;;;;;5.87;1.63;;;9.00;99.90;;;;;;4987438;28;20513;-79
2023/01/12 10:16:49;;;;;;;4.23;1.00;;;8.90;99.90;;;;;;4988551;28;20426;-80
2023/01/12 10:19:42;;;;;;;6.37;1.00;;;9.00;99.90;;;;;;4989370;28;20839;-80
2023/01/12 10:22:35;;;;;;;6.40;1.03;;;9.00;99.90;;;;;;4988101;28;20436;-80
2023/01/12 10:25:21;;;;;;;3.80;0.90;;;9.00;99.90;;;;;;4988395;28;20405;-80
2023/01/12 10:27:50;;;;;;;5.30;1.87;;;9.10;99.90;;;;;;4981844;28;20480;-80
2023/01/12 10:30:28;;;;;;;3.40;0.77;;;9.10;99.90;;;;;;4989372;28;20539;-80
2023/01/12 10:32:54;;;;;;;5.53;0.80;;;9.10;99.90;;;;;;4971806;28;21018;-78
2023/01/12 10:35:22;;;;;;;4.93;1.20;;;9.20;99.90;;;;;;4989091;28;20512;-79
2023/01/12 10:37:54;;;;;;;5.93;1.53;;;9.10;99.90;;;;;;4988440;28;20218;-79
2023/01/12 10:40:37;;;;;;;5.70;1.40;;;9.10;99.90;;;;;;4990291;28;20428;-80
2023/01/12 10:43:18;;;;;;;1.70;1.00;;;9.10;99.90;;;;;;4990880;28;20472;-79
2023/01/12 10:46:00;;;;;;;6.30;1.20;;;9.10;99.90;;;;;;4991251;28;20424;-80
2023/01/12 10:48:26;;;;;;;4.40;1.10;;;9.10;99.90;;;;;;4990090;28;20417;-80
2023/01/12 10:51:01;;;;;;;4.40;1.27;;;9.30;99.90;;;;;;4989269;28;20508;-80
2023/01/12 10:53:42;;;;;;;3.97;1.17;;;9.20;99.90;;;;;;4971863;28;20184;-79
2023/01/12 10:56:34;;;;;;;4.60;1.33;;;9.30;99.90;;;;;;4988740;28;20452;-78
2023/01/12 10:59:12;;;;;;;2.30;0.60;;;9.30;99.90;;;;;;4963990;28;20475;-79
2023/01/12 11:02:04;;;;;;;4.73;1.10;;;9.30;99.90;;;;;;4987674;28;20821;-77
2023/01/12 11:04:35;;;;;;;1.83;1.10;;;9.40;99.90;;;;;;4986596;28;20439;-78
2023/01/12 11:07:17;;;;;;;2.70;0.90;;;9.50;99.90;;;;;;4988547;28;21001;-77
2023/01/12 11:09:43;;;;;;;4.60;0.80;;;9.70;99.90;;;;;;4988620;28;20409;-79
2023/01/12 11:12:39;;;;;;;1.63;0.60;;;9.70;99.90;;;;;;4990623;28;20433;-78
2023/01/12 11:15:11;;;;;;;2.13;0.50;;;9.70;99.90;;;;;;4983254;28;20436;-77
2023/01/12 11:18:04;;;;;;;1.87;0.50;;;9.60;99.90;;;;;;4991861;28;20886;-78
2023/01/12 11:20:45;;;;;;;1.10;0.60;;;9.70;99.90;;;;;;4991575;28;20499;-78
2023/01/12 11:23:23;;;;;;;0.90;0.40;;;9.80;99.90;;;;;;4973813;28;20442;-78
2023/01/12 11:25:51;;;;;;;2.47;0.93;;;9.80;99.90;;;;;;4991307;28;20909;-77
2023/01/12 11:28:26;;;;;;;0.80;0.50;;;9.70;99.90;;;;;;4974010;28;20409;-77
2023/01/12 11:31:05;;;;;;;1.57;0.60;;;9.80;99.90;;;;;;4973664;28;20443;-78
2023/01/12 11:33:36;;;;;;;1.23;0.40;;;9.80;99.90;;;;;;4991251;28;20444;-77
2023/01/12 11:36:22;;;;;;;2.70;0.70;;;10.00;99.90;;;;;;4991084;28;20402;-77
2023/01/12 11:38:57;;;;;;;2.20;0.60;;;9.80;99.90;;;;;;4973144;28;20472;-78
2023/01/12 11:41:42;;;;;;;1.70;0.50;;;9.90;99.90;;;;;;4991069;28;20558;-77
2023/01/12 11:44:19;;;;;;;2.57;0.60;;;9.90;99.90;;;;;;4989167;28;20426;-77
2023/01/12 11:46:55;;;;;;;1.83;0.50;;;10.00;99.90;;;;;;4990649;28;20528;-77
2023/01/12 11:49:33;;;;;;;1.37;0.60;;;10.00;99.90;;;;;;4992847;28;20475;-77
2023/01/12 11:52:01;;;;;;;8.33;2.87;;;10.00;99.90;;;;;;4991800;28;20445;-77
2023/01/12 11:54:28;;;;;;;3.50;1.00;;;10.00;99.90;;;;;;4989744;28;20438;-77
2023/01/12 11:57:56;;;;;;;3.03;2.43;;;9.90;99.90;;;;;;4989418;28;20845;-77
2023/01/12 12:00:42;;;;;;;2.30;1.10;;;9.90;99.90;;;;;;4947362;28;20448;-78
2023/01/12 12:03:18;;;;;;;1.50;0.77;;;9.90;99.90;;;;;;4989713;28;20808;-77
2023/01/12 12:05:54;;;;;;;1.70;0.70;;;9.80;99.90;;;;;;4990373;28;20515;-77
2023/01/12 12:09:04;;;;;;;2.43;0.93;;;9.80;99.90;;;;;;4991007;28;20430;-77
2023/01/12 12:11:52;;;;;;;2.30;0.73;;;9.80;99.90;;;;;;4971367;28;20439;-78
2023/01/12 12:14:42;;;;;;;2.13;0.60;;;9.80;99.90;;;;;;4990430;28;21045;-77
2023/01/12 12:17:40;;;;;;;1.63;0.60;;;9.80;99.90;;;;;;4988956;28;20471;-77
2023/01/12 12:20:20;;;;;;;2.30;0.70;;;9.80;99.90;;;;;;4962048;28;20429;-77
2023/01/12 12:23:01;;;;;;;1.10;0.50;;;9.70;99.90;;;;;;4988193;28;21315;-78
2023/01/12 12:25:38;;;;;;;1.87;0.60;;;9.70;99.90;;;;;;4990746;28;20417;-77
2023/01/12 12:28:19;;;;;;;1.10;0.70;;;9.70;99.90;;;;;;4990294;28;20401;-77
2023/01/12 12:30:59;;;;;;;2.97;0.73;;;9.80;99.90;;;;;;4990099;28;20420;-77
2023/01/12 12:34:03;;;;;;;2.00;0.50;;;9.70;99.90;;;;;;4990023;28;20437;-77
2023/01/12 12:36:43;;;;;;;2.10;0.57;;;9.70;99.90;;;;;;4990016;28;20416;-78
2023/01/12 12:39:33;;;;;;;4.20;0.50;;;9.80;99.90;;;;;;4972752;28;20428;-78
2023/01/12 12:45:23;;;;;;;3.07;0.70;;;9.70;99.90;;;;;;4990028;28;20408;-77
2023/01/12 12:48:03;;;;;;;3.00;1.40;;;9.60;99.90;;;;;;4990300;28;21240;-77
2023/01/12 12:50:51;;;;;;;9.40;3.00;;;9.60;99.90;;;;;;4989779;28;20409;-79
2023/01/12 12:53:31;;;;;;;2.33;1.77;;;9.70;99.90;;;;;;4989150;28;20429;-77
2023/01/12 12:56:01;;;;;;;3.90;1.23;;;9.70;99.90;;;;;;4971797;28;20986;-77
2023/01/12 12:58:48;;;;;;;2.73;0.50;;;9.70;99.90;;;;;;4988149;28;20463;-78
2023/01/12 13:01:20;;;;;;;2.00;1.13;;;9.70;99.90;;;;;;4971396;28;20907;-77
2023/01/12 13:03:48;;;;;;;1.83;0.50;;;9.70;99.90;;;;;;4989412;28;20926;-78
2023/01/12 13:06:17;;;;;;;1.07;0.60;;;9.60;99.90;;;;;;4989253;28;20413;-77
2023/01/12 13:08:44;;;;;;;3.60;2.30;;;9.80;99.90;;;;;;4988975;28;20447;-78
2023/01/12 13:11:09;;;;;;;4.40;1.10;;;9.80;99.90;;;;;;4971723;28;20439;-77
2023/01/12 13:13:37;;;;;;;1.50;0.60;;;9.90;99.90;;;;;;4989487;28;20425;-79
2023/01/12 13:16:18;;;;;;;3.37;0.70;;;9.80;99.90;;;;;;4990339;28;20183;-78
2023/01/12 13:18:49;;;;;;;1.23;0.60;;;9.80;99.90;;;;;;4990051;28;20460;-78
2023/01/12 13:21:45;;;;;;;1.73;0.80;;;9.90;99.90;;;;;;4989829;28;20442;-78
2023/01/12 13:24:11;;;;;;;2.17;0.80;;;9.90;99.90;;;;;;4990249;28;20415;-79
2023/01/12 13:26:42;;;;;;;0.70;0.40;;;9.80;99.90;;;;;;4989199;28;20946;-78
2023/01/12 13:29:23;;;;;;;1.30;0.50;;;9.80;99.90;;;;;;4990082;28;20211;-78
2023/01/12 13:32:27;;;;;;;2.30;0.40;;;9.90;99.90;;;;;;4988961;28;20543;-78
2023/01/12 13:34:53;;;;;;;0.83;0.50;;;9.90;99.90;;;;;;4987225;28;20455;-78
2023/01/12 13:37:31;;;;;;;4.50;0.60;;;9.90;99.90;;;;;;4989993;28;20971;-78
2023/01/12 13:40:25;;;;;;;1.70;0.70;;;9.80;99.90;;;;;;4990203;28;20178;-79
2023/01/12 13:43:14;;;;;;;1.50;0.80;;;9.90;99.90;;;;;;4989403;28;20856;-77
2023/01/12 13:45:56;;;;;;;0.90;0.50;;;9.90;99.90;;;;;;4987998;28;20417;-78
2023/01/12 13:48:23;;;;;;;1.20;0.50;;;9.90;99.90;;;;;;4988944;28;20521;-77
2023/01/12 13:51:00;;;;;;;1.57;0.63;;;9.90;99.90;;;;;;4988300;28;20822;-77
2023/01/12 13:53:29;;;;;;;1.10;0.47;;;9.90;99.90;;;;;;4988796;28;20479;-77
2023/01/12 13:56:06;;;;;;;1.63;0.60;;;9.90;99.90;;;;;;4988223;28;20428;-77
2023/01/12 13:58:42;;;;;;;15.37;1.90;;;9.90;99.90;;;;;;4970432;28;20471;-77